createdAt,value
2023-01-05T00:00:00.573Z,0.00
2023-01-05T00:01:00.550Z,0.00
2023-01-05T00:02:00.619Z,0.00
2023-01-05T00:03:00.545Z,0.00
2023-01-05T00:04:00.677Z,0.00
2023-01-05T00:05:00.538Z,0.00
2023-01-05T00:06:00.577Z,0.00
2023-01-05T00:07:00.533Z,0.00
2023-01-05T00:08:00.534Z,0.00
2023-01-05T00:09:00.550Z,0.00
2023-01-05T00:10:00.522Z,0.00
2023-01-05T00:11:00.524Z,0.00
2023-01-05T00:12:00.515Z,0.00
2023-01-05T00:13:00.512Z,0.00
2023-01-05T00:14:00.529Z,0.00
2023-01-05T00:15:00.526Z,0.00
2023-01-05T00:16:00.510Z,0.00
2023-01-05T00:17:00.541Z,0.00
2023-01-05T00:18:00.500Z,0.00
2023-01-05T00:19:00.500Z,0.00
2023-01-05T00:20:00.490Z,0.00
2023-01-05T00:21:00.492Z,0.00
2023-01-05T00:22:00.502Z,0.00
2023-01-05T00:23:00.485Z,0.00
2023-01-05T00:24:00.478Z,0.00
2023-01-05T00:25:02.250Z,0.00
2023-01-05T00:26:00.476Z,0.00
2023-01-05T00:27:00.474Z,0.00
2023-01-05T00:28:00.502Z,0.00
2023-01-05T00:29:00.461Z,0.00
2023-01-05T00:30:00.477Z,0.00
2023-01-05T00:31:00.457Z,0.00
2023-01-05T00:32:00.501Z,0.00
2023-01-05T00:33:00.450Z,0.00
2023-01-05T00:34:00.449Z,0.00
2023-01-05T00:35:00.466Z,0.00
2023-01-05T00:36:00.441Z,0.00
2023-01-05T00:37:00.444Z,0.00
2023-01-05T00:38:00.460Z,0.00
2023-01-05T00:39:00.434Z,0.00
2023-01-05T00:40:00.429Z,0.00
2023-01-05T00:41:00.429Z,0.00
2023-01-05T00:42:00.419Z,0.00
2023-01-05T00:43:00.425Z,0.00
2023-01-05T00:44:00.415Z,0.00
2023-01-05T00:45:00.422Z,0.00
2023-01-05T00:46:00.524Z,0.00
2023-01-05T00:47:00.406Z,0.00
2023-01-05T00:48:00.405Z,0.00
2023-01-05T00:49:00.408Z,0.00
2023-01-05T00:50:00.392Z,0.00
2023-01-05T00:51:00.397Z,0.00
2023-01-05T00:52:00.391Z,0.00
2023-01-05T00:53:00.387Z,0.00
2023-01-05T00:54:00.397Z,0.00
2023-01-05T00:55:00.388Z,0.00
2023-01-05T00:56:00.381Z,0.00
2023-01-05T00:57:00.372Z,0.00
2023-01-05T00:58:00.371Z,0.00
2023-01-05T00:59:00.373Z,0.00
2023-01-05T01:00:00.366Z,0.00
2023-01-05T01:01:00.498Z,0.00
2023-01-05T01:02:00.610Z,0.00
2023-01-05T01:03:00.488Z,0.00
2023-01-05T01:04:00.349Z,0.00
2023-01-05T01:05:00.359Z,0.00
2023-01-05T01:06:00.360Z,0.00
2023-01-05T01:07:00.345Z,0.00
2023-01-05T01:08:00.343Z,0.00
2023-01-05T01:09:00.346Z,0.00
2023-01-05T01:10:00.348Z,0.00
2023-01-05T01:11:00.330Z,0.00
2023-01-05T01:12:00.479Z,0.00
2023-01-05T01:13:00.324Z,0.00
2023-01-05T01:14:00.317Z,0.00
2023-01-05T01:15:00.318Z,0.00
2023-01-05T01:16:00.311Z,0.00
2023-01-05T01:17:00.470Z,0.00
2023-01-05T01:18:00.303Z,0.00
2023-01-05T01:19:04.989Z,0.00
2023-01-05T01:20:00.304Z,0.00
2023-01-05T01:21:00.302Z,0.00
2023-01-05T01:22:00.291Z,0.00
2023-01-05T01:23:00.290Z,0.00
2023-01-05T01:24:00.282Z,0.00
2023-01-05T01:25:00.291Z,0.00
2023-01-05T01:26:00.296Z,0.00
2023-01-05T01:27:00.291Z,0.00
2023-01-05T01:28:00.282Z,0.00
2023-01-05T01:29:00.285Z,0.00
2023-01-05T01:30:00.265Z,0.00
2023-01-05T01:31:00.317Z,0.00
2023-01-05T01:32:00.257Z,0.00
2023-01-05T01:33:00.260Z,0.00
2023-01-05T01:34:00.250Z,0.00
2023-01-05T01:35:00.256Z,0.00
2023-01-05T01:36:00.243Z,0.00
2023-01-05T01:37:00.251Z,0.00
2023-01-05T01:38:00.239Z,0.00
2023-01-05T01:39:00.238Z,0.00
2023-01-05T01:40:00.229Z,0.00
2023-01-05T01:41:00.233Z,0.00
2023-01-05T01:42:00.247Z,0.00
2023-01-05T01:43:00.239Z,0.00
2023-01-05T01:44:00.238Z,0.00
2023-01-05T01:45:00.223Z,0.00
2023-01-05T01:46:00.301Z,0.00
2023-01-05T01:47:00.215Z,0.00
2023-01-05T01:48:00.205Z,0.00
2023-01-05T01:49:00.203Z,0.00
2023-01-05T01:50:00.207Z,0.00
2023-01-05T01:51:07.728Z,0.00
2023-01-05T01:52:00.191Z,0.00
2023-01-05T01:53:00.190Z,0.00
2023-01-05T01:54:00.186Z,0.00
2023-01-05T01:55:00.194Z,0.00
2023-01-05T01:56:00.179Z,0.00
2023-01-05T01:57:00.183Z,0.00
2023-01-05T01:58:00.203Z,0.00
2023-01-05T01:59:00.171Z,0.00
2023-01-05T02:00:00.232Z,0.00
2023-01-05T02:01:00.289Z,0.00
2023-01-05T02:02:00.365Z,0.00
2023-01-05T02:03:00.156Z,0.00
2023-01-05T02:04:00.296Z,0.00
2023-01-05T02:05:00.154Z,0.00
2023-01-05T02:06:00.144Z,0.00
2023-01-05T02:07:00.148Z,0.00
2023-01-05T02:08:00.144Z,0.00
2023-01-05T02:09:00.139Z,0.00
2023-01-05T02:10:00.134Z,0.00
2023-01-05T02:11:00.132Z,0.00
2023-01-05T02:12:00.328Z,0.00
2023-01-05T02:13:00.125Z,0.00
2023-01-05T02:14:00.140Z,0.00
2023-01-05T02:15:00.136Z,0.00
2023-01-05T02:16:00.128Z,0.00
2023-01-05T02:17:00.170Z,0.00
2023-01-05T02:18:00.127Z,0.00
2023-01-05T02:19:00.117Z,0.00
2023-01-05T02:20:00.134Z,0.00
2023-01-05T02:21:00.153Z,0.00
2023-01-05T02:22:00.154Z,0.00
2023-01-05T02:23:00.110Z,0.00
2023-01-05T02:24:00.120Z,0.00
2023-01-05T02:25:00.095Z,0.00
2023-01-05T02:26:00.103Z,0.00
2023-01-05T02:27:00.112Z,0.00
2023-01-05T02:28:00.106Z,0.00
2023-01-05T02:29:00.127Z,0.00
2023-01-05T02:30:00.112Z,0.00
2023-01-05T02:31:00.161Z,0.00
2023-01-05T02:32:00.077Z,0.00
2023-01-05T02:33:00.096Z,0.00
2023-01-05T02:34:00.052Z,0.00
2023-01-05T02:35:00.051Z,0.00
2023-01-05T02:36:00.052Z,0.00
2023-01-05T02:37:00.049Z,0.00
2023-01-05T02:38:00.045Z,0.00
2023-01-05T02:39:00.044Z,0.00
2023-01-05T02:40:00.060Z,0.00
2023-01-05T02:41:00.035Z,0.00
2023-01-05T02:42:00.036Z,0.00
2023-01-05T02:43:00.033Z,0.00
2023-01-05T02:44:00.030Z,0.00
2023-01-05T02:45:00.018Z,0.00
2023-01-05T02:46:00.156Z,0.00
2023-01-05T02:47:00.016Z,0.00
2023-01-05T02:48:00.008Z,0.00
2023-01-05T02:49:00.010Z,0.00
2023-01-05T02:50:00.005Z,0.00
2023-01-05T02:51:00.003Z,0.00
2023-01-05T02:52:00.007Z,0.00
2023-01-05T02:53:00.005Z,0.00
2023-01-05T02:53:59.991Z,0.00
2023-01-05T02:54:59.987Z,0.00
2023-01-05T02:55:59.989Z,0.00
2023-01-05T02:56:59.978Z,0.00
2023-01-05T02:57:59.972Z,0.00
2023-01-05T02:58:59.973Z,0.00
2023-01-05T02:59:59.967Z,0.00
2023-01-05T03:01:00.049Z,0.00
2023-01-05T03:02:00.117Z,0.00
2023-01-05T03:03:00.085Z,0.00
2023-01-05T03:03:59.953Z,0.00
2023-01-05T03:04:59.966Z,0.00
2023-01-05T03:05:59.948Z,0.00
2023-01-05T03:06:59.962Z,0.00
2023-01-05T03:07:59.948Z,0.00
2023-01-05T03:08:59.939Z,0.00
2023-01-05T03:09:59.939Z,0.00
2023-01-05T03:10:59.936Z,0.00
2023-01-05T03:11:59.941Z,0.00
2023-01-05T03:13:00.128Z,0.00
2023-01-05T03:13:59.921Z,0.00
2023-01-05T03:14:59.924Z,0.00
2023-01-05T03:15:59.954Z,0.00
2023-01-05T03:16:59.912Z,0.00
2023-01-05T03:17:59.926Z,0.00
2023-01-05T03:18:59.918Z,0.00
2023-01-05T03:19:59.905Z,0.00
2023-01-05T03:20:59.898Z,0.00
2023-01-05T03:21:59.894Z,0.00
2023-01-05T03:22:59.898Z,0.00
2023-01-05T03:23:59.887Z,0.00
2023-01-05T03:24:59.888Z,0.00
2023-01-05T03:25:59.882Z,0.00
2023-01-05T03:26:59.880Z,0.00
2023-01-05T03:27:59.875Z,0.00
2023-01-05T03:28:59.879Z,0.00
2023-01-05T03:29:59.867Z,0.00
2023-01-05T03:30:59.896Z,0.00
2023-01-05T03:31:59.864Z,0.00
2023-01-05T03:32:59.864Z,0.00
2023-01-05T03:33:59.871Z,0.00
2023-01-05T03:34:59.854Z,0.00
2023-01-05T03:35:59.848Z,0.00
2023-01-05T03:36:59.849Z,0.00
2023-01-05T03:37:59.843Z,0.00
2023-01-05T03:38:59.844Z,0.00
2023-01-05T03:39:59.833Z,0.00
2023-01-05T03:40:59.830Z,0.00
2023-01-05T03:41:59.826Z,0.00
2023-01-05T03:42:59.822Z,0.00
2023-01-05T03:43:59.820Z,0.00
2023-01-05T03:44:59.815Z,0.00
2023-01-05T03:45:59.891Z,0.00
2023-01-05T03:46:59.821Z,0.00
2023-01-05T03:47:59.806Z,0.00
2023-01-05T03:48:59.807Z,0.00
2023-01-05T03:49:59.841Z,0.00
2023-01-05T03:50:59.798Z,0.00
2023-01-05T03:51:59.802Z,0.00
2023-01-05T03:52:59.790Z,0.00
2023-01-05T03:53:59.785Z,0.00
2023-01-05T03:54:59.781Z,0.00
2023-01-05T03:55:59.779Z,0.00
2023-01-05T03:56:59.776Z,0.00
2023-01-05T03:57:59.774Z,0.00
2023-01-05T03:58:59.767Z,0.00
2023-01-05T03:59:59.786Z,0.00
2023-01-05T04:00:59.761Z,0.00
2023-01-05T04:01:59.877Z,0.00
2023-01-05T04:02:59.878Z,0.00
2023-01-05T04:03:59.846Z,0.00
2023-01-05T04:04:59.749Z,0.00
2023-01-05T04:05:59.798Z,0.00
2023-01-05T04:06:59.742Z,0.00
2023-01-05T04:07:59.754Z,0.00
2023-01-05T04:08:59.734Z,0.00
2023-01-05T04:09:59.732Z,0.00
2023-01-05T04:10:59.727Z,0.00
2023-01-05T04:11:59.727Z,0.00
2023-01-05T04:12:59.736Z,0.00
2023-01-05T04:13:59.717Z,0.00
2023-01-05T04:14:59.719Z,0.00
2023-01-05T04:15:59.746Z,0.00
2023-01-05T04:16:59.713Z,0.00
2023-01-05T04:18:00.084Z,0.00
2023-01-05T04:18:59.702Z,0.00
2023-01-05T04:19:59.699Z,0.00
2023-01-05T04:20:59.695Z,0.00
2023-01-05T04:21:59.726Z,0.00
2023-01-05T04:22:59.686Z,0.00
2023-01-05T04:23:59.690Z,0.00
2023-01-05T04:24:59.709Z,0.00
2023-01-05T04:25:59.693Z,0.00
2023-01-05T04:26:59.680Z,0.00
2023-01-05T04:27:59.669Z,0.00
2023-01-05T04:28:59.668Z,0.00
2023-01-05T04:29:59.684Z,0.00
2023-01-05T04:30:59.697Z,0.00
2023-01-05T04:31:59.659Z,0.00
2023-01-05T04:32:59.653Z,0.00
2023-01-05T04:33:59.660Z,0.00
2023-01-05T04:35:01.745Z,0.00
2023-01-05T04:35:59.656Z,0.00
2023-01-05T04:36:59.638Z,0.00
2023-01-05T04:37:59.652Z,0.00
2023-01-05T04:38:59.635Z,0.00
2023-01-05T04:39:59.637Z,0.00
2023-01-05T04:40:59.631Z,0.00
2023-01-05T04:41:59.626Z,0.00
2023-01-05T04:42:59.624Z,0.00
2023-01-05T04:43:59.621Z,0.00
2023-01-05T04:44:59.618Z,0.00
2023-01-05T04:45:59.697Z,0.00
2023-01-05T04:46:59.607Z,0.00
2023-01-05T04:47:59.603Z,0.00
2023-01-05T04:48:59.604Z,0.00
2023-01-05T04:49:59.599Z,0.00
2023-01-05T04:50:59.591Z,0.00
2023-01-05T04:51:59.589Z,0.00
2023-01-05T04:52:59.584Z,0.00
2023-01-05T04:53:59.604Z,0.00
2023-01-05T04:54:59.584Z,0.00
2023-01-05T04:55:59.588Z,0.00
2023-01-05T04:56:59.573Z,0.00
2023-01-05T04:57:59.568Z,0.00
2023-01-05T04:58:59.565Z,0.00
2023-01-05T04:59:59.583Z,0.00
2023-01-05T05:00:59.557Z,0.00
2023-01-05T05:01:59.687Z,0.00
2023-01-05T05:02:59.609Z,0.00
2023-01-05T05:03:59.548Z,0.00
2023-01-05T05:04:59.548Z,0.00
2023-01-05T05:05:59.540Z,0.00
2023-01-05T05:06:59.537Z,0.00
2023-01-05T05:07:59.539Z,0.00
2023-01-05T05:08:59.555Z,0.00
2023-01-05T05:09:59.551Z,0.00
2023-01-05T05:10:59.527Z,0.00
2023-01-05T05:11:59.522Z,0.00
2023-01-05T05:12:59.521Z,0.00
2023-01-05T05:13:59.519Z,0.00
2023-01-05T05:14:59.511Z,0.00
2023-01-05T05:15:59.558Z,0.00
2023-01-05T05:16:59.503Z,0.00
2023-01-05T05:18:04.180Z,0.00
2023-01-05T05:18:59.496Z,0.00
2023-01-05T05:19:59.496Z,0.00
2023-01-05T05:20:59.497Z,0.00
2023-01-05T05:21:59.494Z,0.00
2023-01-05T05:22:59.494Z,0.00
2023-01-05T05:23:59.480Z,0.00
2023-01-05T05:24:59.482Z,0.00
2023-01-05T05:25:59.497Z,0.00
2023-01-05T05:26:59.470Z,0.00
2023-01-05T05:27:59.470Z,0.00
2023-01-05T05:28:59.461Z,0.00
2023-01-05T05:29:59.460Z,0.00
2023-01-05T05:30:59.543Z,0.00
2023-01-05T05:31:59.452Z,0.00
2023-01-05T05:32:59.451Z,0.00
2023-01-05T05:33:59.450Z,0.00
2023-01-05T05:34:59.445Z,0.00
2023-01-05T05:35:59.442Z,0.00
2023-01-05T05:36:59.440Z,0.00
2023-01-05T05:37:59.430Z,0.00
2023-01-05T05:38:59.436Z,0.00
2023-01-05T05:39:59.428Z,0.00
2023-01-05T05:40:59.426Z,0.00
2023-01-05T05:41:59.435Z,0.00
2023-01-05T05:42:59.419Z,0.00
2023-01-05T05:43:59.410Z,0.00
2023-01-05T05:44:59.413Z,0.00
2023-01-05T05:45:59.407Z,0.00
2023-01-05T05:46:59.474Z,0.00
2023-01-05T05:47:59.397Z,0.00
2023-01-05T05:48:59.397Z,0.00
2023-01-05T05:49:59.392Z,0.00
2023-01-05T05:50:59.382Z,0.00
2023-01-05T05:51:59.384Z,0.00
2023-01-05T05:52:59.380Z,0.00
2023-01-05T05:53:59.378Z,0.00
2023-01-05T05:54:59.373Z,0.00
2023-01-05T05:55:59.368Z,0.00
2023-01-05T05:56:59.377Z,0.00
2023-01-05T05:57:59.386Z,0.00
2023-01-05T05:59:01.823Z,0.00
2023-01-05T05:59:59.356Z,0.00
2023-01-05T06:00:59.349Z,0.00
2023-01-05T06:01:59.541Z,0.00
2023-01-05T06:02:59.511Z,0.00
2023-01-05T06:03:59.344Z,0.00
2023-01-05T06:04:59.342Z,0.00
2023-01-05T06:05:59.334Z,0.00
2023-01-05T06:06:59.336Z,0.00
2023-01-05T06:07:59.331Z,0.00
2023-01-05T06:08:59.325Z,0.00
2023-01-05T06:09:59.327Z,0.00
2023-01-05T06:10:59.320Z,0.00
2023-01-05T06:11:59.316Z,0.00
2023-01-05T06:12:59.315Z,0.00
2023-01-05T06:13:59.325Z,0.00
2023-01-05T06:14:59.303Z,0.00
2023-01-05T06:15:59.364Z,0.00
2023-01-05T06:16:59.303Z,0.00
2023-01-05T06:17:59.456Z,0.00
2023-01-05T06:18:59.314Z,0.00
2023-01-05T06:19:59.290Z,0.00
2023-01-05T06:21:01.736Z,0.00
2023-01-05T06:21:59.290Z,0.00
2023-01-05T06:22:59.318Z,0.00
2023-01-05T06:23:59.274Z,0.00
2023-01-05T06:24:59.269Z,0.00
2023-01-05T06:25:59.266Z,0.00
2023-01-05T06:26:59.263Z,0.00
2023-01-05T06:27:59.260Z,0.00
2023-01-05T06:28:59.252Z,0.00
2023-01-05T06:29:59.271Z,0.00
2023-01-05T06:30:59.250Z,0.00
2023-01-05T06:31:59.273Z,0.00
2023-01-05T06:32:59.247Z,0.00
2023-01-05T06:33:59.238Z,0.00
2023-01-05T06:34:59.254Z,0.00
2023-01-05T06:35:59.239Z,0.00
2023-01-05T06:37:02.257Z,0.00
2023-01-05T06:37:59.228Z,0.00
2023-01-05T06:38:59.219Z,0.00
2023-01-05T06:39:59.216Z,0.00
2023-01-05T06:40:59.214Z,0.00
2023-01-05T06:41:59.209Z,0.00
2023-01-05T06:42:59.207Z,0.00
2023-01-05T06:43:59.213Z,0.00
2023-01-05T06:44:59.200Z,0.00
2023-01-05T06:45:59.320Z,0.00
2023-01-05T06:46:59.189Z,0.00
2023-01-05T06:47:59.189Z,0.00
2023-01-05T06:48:59.208Z,0.00
2023-01-05T06:49:59.191Z,0.00
2023-01-05T06:50:59.183Z,0.00
2023-01-05T06:51:59.183Z,0.00
2023-01-05T06:52:59.188Z,0.00
2023-01-05T06:53:59.194Z,0.00
2023-01-05T06:54:59.163Z,0.00
2023-01-05T06:55:59.175Z,0.00
2023-01-05T06:56:59.155Z,0.00
2023-01-05T06:58:01.299Z,0.00
2023-01-05T06:58:59.152Z,0.00
2023-01-05T06:59:59.153Z,0.00
2023-01-05T07:00:59.175Z,0.00
2023-01-05T07:01:59.193Z,0.00
2023-01-05T07:02:59.148Z,0.00
2023-01-05T07:03:59.204Z,0.00
2023-01-05T07:04:59.132Z,0.00
2023-01-05T07:05:59.128Z,0.00
2023-01-05T07:06:59.124Z,0.00
2023-01-05T07:07:59.121Z,0.00
2023-01-05T07:08:59.115Z,0.00
2023-01-05T07:09:59.111Z,0.00
2023-01-05T07:10:59.111Z,0.00
2023-01-05T07:11:59.108Z,0.00
2023-01-05T07:12:59.099Z,0.00
2023-01-05T07:13:59.105Z,0.00
2023-01-05T07:14:59.098Z,0.00
2023-01-05T07:15:59.137Z,0.00
2023-01-05T07:16:59.085Z,0.00
2023-01-05T07:17:59.109Z,4.00
2023-01-05T07:18:59.085Z,4.00
2023-01-05T07:19:59.109Z,0.00
2023-01-05T07:20:59.084Z,4.00
2023-01-05T07:21:59.093Z,4.00
2023-01-05T07:22:59.073Z,0.00
2023-01-05T07:23:59.062Z,4.00
2023-01-05T07:24:59.071Z,4.00
2023-01-05T07:25:59.063Z,4.00
2023-01-05T07:27:00.924Z,0.00
2023-01-05T07:27:59.064Z,4.00
2023-01-05T07:28:59.048Z,8.00
2023-01-05T07:29:59.043Z,8.00
2023-01-05T07:30:59.040Z,8.00
2023-01-05T07:31:59.097Z,8.00
2023-01-05T07:32:59.035Z,8.00
2023-01-05T07:33:59.116Z,12.00
2023-01-05T07:34:59.023Z,8.00
2023-01-05T07:35:59.037Z,8.00
2023-01-05T07:36:59.076Z,8.00
2023-01-05T07:37:59.016Z,8.00
2023-01-05T07:38:59.688Z,8.00
2023-01-05T07:39:59.018Z,8.00
2023-01-05T07:40:59.009Z,8.00
2023-01-05T07:41:59.001Z,8.00
2023-01-05T07:42:58.997Z,12.00
2023-01-05T07:43:58.994Z,12.00
2023-01-05T07:44:58.992Z,12.00
2023-01-05T07:45:59.057Z,16.00
2023-01-05T07:46:58.984Z,16.00
2023-01-05T07:47:58.979Z,16.00
2023-01-05T07:48:58.980Z,20.00
2023-01-05T07:49:58.992Z,16.00
2023-01-05T07:50:58.968Z,16.00
2023-01-05T07:51:58.966Z,12.00
2023-01-05T07:52:58.968Z,16.00
2023-01-05T07:53:58.957Z,24.00
2023-01-05T07:54:58.957Z,24.00
2023-01-05T07:55:58.952Z,24.00
2023-01-05T07:56:58.950Z,28.00
2023-01-05T07:57:58.946Z,24.00
2023-01-05T07:58:58.953Z,28.00
2023-01-05T07:59:58.941Z,24.00
2023-01-05T08:00:59.009Z,24.00
2023-01-05T08:01:59.064Z,16.00
2023-01-05T08:02:58.927Z,16.00
2023-01-05T08:03:58.954Z,16.00
2023-01-05T08:04:58.921Z,20.00
2023-01-05T08:05:58.935Z,20.00
2023-01-05T08:06:58.929Z,28.00
2023-01-05T08:07:58.904Z,36.00
2023-01-05T08:08:58.912Z,32.00
2023-01-05T08:09:58.916Z,32.00
2023-01-05T08:10:58.899Z,20.00
2023-01-05T08:11:58.893Z,16.00
2023-01-05T08:12:58.896Z,16.00
2023-01-05T08:13:58.889Z,12.00
2023-01-05T08:14:58.890Z,16.00
2023-01-05T08:15:58.883Z,16.00
2023-01-05T08:16:58.930Z,20.00
2023-01-05T08:17:58.871Z,24.00
2023-01-05T08:18:59.254Z,32.00
2023-01-05T08:19:58.869Z,36.00
2023-01-05T08:20:58.890Z,40.00
2023-01-05T08:21:58.917Z,44.00
2023-01-05T08:22:58.858Z,44.00
2023-01-05T08:23:58.854Z,40.00
2023-01-05T08:24:58.856Z,40.00
2023-01-05T08:25:59.012Z,36.00
2023-01-05T08:26:58.948Z,32.00
2023-01-05T08:27:58.839Z,32.00
2023-01-05T08:28:58.847Z,44.00
2023-01-05T08:29:58.837Z,56.00
2023-01-05T08:30:58.830Z,80.00
2023-01-05T08:31:58.884Z,84.00
2023-01-05T08:32:58.822Z,64.00
2023-01-05T08:33:58.819Z,56.00
2023-01-05T08:34:58.816Z,52.00
2023-01-05T08:35:58.821Z,56.00
2023-01-05T08:36:58.809Z,48.00
2023-01-05T08:37:58.861Z,60.00
2023-01-05T08:38:58.803Z,56.00
2023-01-05T08:39:58.794Z,60.00
2023-01-05T08:40:58.800Z,84.00
2023-01-05T08:42:02.593Z,72.00
2023-01-05T08:42:58.791Z,64.00
2023-01-05T08:43:58.787Z,40.00
2023-01-05T08:44:58.778Z,44.00
2023-01-05T08:45:58.811Z,52.00
2023-01-05T08:46:58.778Z,56.00
2023-01-05T08:47:58.769Z,56.00
2023-01-05T08:48:58.771Z,56.00
2023-01-05T08:49:58.765Z,56.00
2023-01-05T08:50:58.759Z,60.00
2023-01-05T08:51:58.760Z,60.00
2023-01-05T08:52:58.753Z,68.00
2023-01-05T08:53:58.782Z,64.00
2023-01-05T08:54:58.751Z,76.00
2023-01-05T08:55:58.751Z,88.00
2023-01-05T08:56:58.743Z,76.00
2023-01-05T08:57:58.739Z,76.00
2023-01-05T08:58:58.741Z,72.00
2023-01-05T08:59:58.738Z,76.00
2023-01-05T09:00:58.748Z,96.00
2023-01-05T09:01:58.879Z,128.00
2023-01-05T09:02:58.863Z,116.00
2023-01-05T09:03:58.722Z,104.00
2023-01-05T09:04:58.717Z,88.00
2023-01-05T09:05:58.710Z,84.00
2023-01-05T09:06:58.703Z,92.00
2023-01-05T09:07:58.704Z,104.00
2023-01-05T09:08:58.697Z,104.00
2023-01-05T09:09:58.709Z,88.00
2023-01-05T09:10:58.692Z,84.00
2023-01-05T09:11:58.689Z,76.00
2023-01-05T09:12:58.689Z,92.00
2023-01-05T09:13:58.678Z,96.00
2023-01-05T09:14:58.679Z,92.00
2023-01-05T09:15:58.673Z,88.00
2023-01-05T09:17:07.668Z,96.00
2023-01-05T09:17:58.791Z,96.00
2023-01-05T09:18:58.673Z,108.00
2023-01-05T09:19:58.657Z,100.00
2023-01-05T09:20:58.670Z,96.00
2023-01-05T09:21:58.660Z,108.00
2023-01-05T09:22:58.655Z,112.00
2023-01-05T09:23:58.659Z,108.00
2023-01-05T09:24:58.644Z,108.00
2023-01-05T09:25:58.654Z,112.00
2023-01-05T09:26:58.638Z,132.00
2023-01-05T09:27:58.632Z,140.00
2023-01-05T09:28:58.633Z,116.00
2023-01-05T09:29:58.626Z,100.00
2023-01-05T09:30:58.669Z,104.00
2023-01-05T09:31:58.619Z,108.00
2023-01-05T09:32:58.618Z,108.00
2023-01-05T09:33:58.611Z,120.00
2023-01-05T09:34:58.611Z,120.00
2023-01-05T09:35:58.602Z,92.00
2023-01-05T09:36:58.600Z,100.00
2023-01-05T09:37:58.596Z,108.00
2023-01-05T09:38:58.601Z,108.00
2023-01-05T09:39:58.590Z,124.00
2023-01-05T09:40:58.588Z,144.00
2023-01-05T09:41:58.699Z,160.00
2023-01-05T09:42:58.582Z,148.00
2023-01-05T09:43:58.930Z,148.00
2023-01-05T09:44:59.240Z,124.00
2023-01-05T09:45:58.622Z,140.00
2023-01-05T09:46:58.582Z,140.00
2023-01-05T09:47:58.561Z,140.00
2023-01-05T09:48:58.562Z,116.00
2023-01-05T09:49:58.564Z,120.00
2023-01-05T09:50:58.570Z,124.00
2023-01-05T09:51:58.557Z,104.00
2023-01-05T09:52:58.554Z,144.00
2023-01-05T09:53:58.540Z,120.00
2023-01-05T09:54:58.539Z,136.00
2023-01-05T09:55:58.539Z,128.00
2023-01-05T09:57:09.240Z,144.00
2023-01-05T09:57:58.651Z,152.00
2023-01-05T09:58:58.525Z,176.00
2023-01-05T09:59:58.528Z,180.00
2023-01-05T10:00:58.523Z,136.00
2023-01-05T10:01:58.513Z,144.00
2023-01-05T10:02:58.572Z,136.00
2023-01-05T10:04:05.851Z,172.00
2023-01-05T10:04:58.618Z,124.00
2023-01-05T10:05:58.530Z,120.00
2023-01-05T10:06:58.502Z,104.00
2023-01-05T10:07:58.503Z,124.00
2023-01-05T10:08:58.494Z,136.00
2023-01-05T10:09:58.494Z,156.00
2023-01-05T10:10:58.493Z,136.00
2023-01-05T10:11:58.501Z,128.00
2023-01-05T10:12:58.480Z,112.00
2023-01-05T10:13:58.601Z,124.00
2023-01-05T10:14:58.475Z,108.00
2023-01-05T10:15:58.504Z,128.00
2023-01-05T10:17:30.643Z,128.00
2023-01-05T10:17:58.465Z,136.00
2023-01-05T10:18:58.462Z,152.00
2023-01-05T10:19:58.468Z,128.00
2023-01-05T10:20:58.472Z,144.00
2023-01-05T10:21:58.448Z,148.00
2023-01-05T10:22:58.460Z,124.00
2023-01-05T10:23:58.442Z,132.00
2023-01-05T10:24:58.439Z,128.00
2023-01-05T10:25:58.437Z,120.00
2023-01-05T10:27:24.150Z,128.00
2023-01-05T10:27:58.428Z,120.00
2023-01-05T10:28:58.428Z,108.00
2023-01-05T10:29:58.532Z,116.00
2023-01-05T10:30:58.522Z,112.00
2023-01-05T10:31:58.413Z,112.00
2023-01-05T10:33:22.034Z,124.00
2023-01-05T10:34:03.382Z,100.00
2023-01-05T10:34:58.409Z,80.00
2023-01-05T10:36:01.245Z,76.00
2023-01-05T10:37:13.893Z,92.00
2023-01-05T10:37:58.395Z,112.00
2023-01-05T10:38:58.401Z,112.00
2023-01-05T10:39:58.391Z,140.00
2023-01-05T10:40:58.384Z,144.00
2023-01-05T10:41:58.381Z,136.00
2023-01-05T10:42:58.386Z,144.00
2023-01-05T10:43:58.578Z,156.00
2023-01-05T10:44:58.372Z,132.00
2023-01-05T10:46:29.742Z,120.00
2023-01-05T10:46:58.445Z,160.00
2023-01-05T10:47:58.448Z,152.00
2023-01-05T10:48:58.368Z,176.00
2023-01-05T10:49:58.357Z,188.00
2023-01-05T10:50:58.359Z,228.00
2023-01-05T10:51:58.347Z,172.00
2023-01-05T10:52:58.349Z,180.00
2023-01-05T10:53:58.345Z,256.00
2023-01-05T10:54:58.348Z,236.00
2023-01-05T10:55:58.354Z,220.00
2023-01-05T10:56:58.341Z,204.00
2023-01-05T10:57:58.360Z,200.00
2023-01-05T10:58:58.340Z,216.00
2023-01-05T10:59:58.400Z,240.00
2023-01-05T11:00:58.318Z,276.00
2023-01-05T11:01:58.695Z,304.00
2023-01-05T11:02:58.360Z,356.00
2023-01-05T11:04:58.365Z,328.00
2023-01-05T11:05:58.304Z,308.00
2023-01-05T11:06:58.295Z,340.00
2023-01-05T11:07:58.298Z,368.00
2023-01-05T11:08:58.293Z,372.00
2023-01-05T11:09:58.296Z,352.00
2023-01-05T11:10:58.298Z,344.00
2023-01-05T11:11:58.320Z,388.00
2023-01-05T11:12:58.281Z,376.00
2023-01-05T11:13:58.272Z,352.00
2023-01-05T11:14:59.243Z,364.00
2023-01-05T11:15:58.329Z,320.00
2023-01-05T11:16:58.266Z,288.00
2023-01-05T11:17:58.404Z,316.00
2023-01-05T11:18:58.270Z,300.00
2023-01-05T11:19:58.266Z,308.00
2023-01-05T11:20:58.252Z,356.00
2023-01-05T11:22:02.127Z,364.00
2023-01-05T11:22:58.246Z,356.00
2023-01-05T11:23:58.248Z,348.00
2023-01-05T11:24:58.241Z,340.00
2023-01-05T11:25:58.233Z,348.00
2023-01-05T11:26:58.235Z,332.00
2023-01-05T11:28:05.033Z,340.00
2023-01-05T11:28:58.233Z,332.00
2023-01-05T11:29:58.221Z,336.00
2023-01-05T11:30:58.230Z,364.00
2023-01-05T11:31:58.224Z,336.00
2023-01-05T11:32:58.217Z,340.00
2023-01-05T11:33:58.231Z,304.00
2023-01-05T11:34:58.215Z,324.00
2023-01-05T11:35:58.202Z,336.00
2023-01-05T11:37:01.299Z,344.00
2023-01-05T11:37:58.234Z,332.00
2023-01-05T11:38:58.193Z,320.00
2023-01-05T11:39:58.195Z,340.00
2023-01-05T11:40:58.189Z,368.00
2023-01-05T11:41:58.187Z,328.00
2023-01-05T11:42:58.180Z,336.00
2023-01-05T11:43:58.377Z,344.00
2023-01-05T11:44:58.173Z,296.00
2023-01-05T11:45:58.224Z,296.00
2023-01-05T11:46:58.166Z,316.00
2023-01-05T11:47:58.170Z,340.00
2023-01-05T11:48:58.170Z,324.00
2023-01-05T11:49:58.724Z,300.00
2023-01-05T11:50:58.180Z,316.00
2023-01-05T11:51:58.151Z,348.00
2023-01-05T11:52:58.159Z,380.00
2023-01-05T11:53:58.143Z,408.00
2023-01-05T11:54:58.140Z,380.00
2023-01-05T11:55:58.144Z,388.00
2023-01-05T11:56:58.142Z,364.00
2023-01-05T11:58:00.385Z,300.00
2023-01-05T11:58:58.136Z,272.00
2023-01-05T11:59:58.122Z,292.00
2023-01-05T12:00:58.318Z,240.00
2023-01-05T12:01:58.281Z,260.00
2023-01-05T12:02:58.184Z,224.00
2023-01-05T12:03:58.966Z,252.00
2023-01-05T12:04:58.132Z,260.00
2023-01-05T12:05:58.221Z,244.00
2023-01-05T12:06:58.101Z,268.00
2023-01-05T12:07:58.097Z,304.00
2023-01-05T12:08:58.252Z,280.00
2023-01-05T12:09:58.089Z,304.00
2023-01-05T12:10:58.091Z,372.00
2023-01-05T12:11:58.085Z,388.00
2023-01-05T12:12:58.082Z,396.00
2023-01-05T12:13:58.078Z,404.00
2023-01-05T12:14:58.078Z,364.00
2023-01-05T12:16:02.051Z,452.00
2023-01-05T12:16:58.070Z,468.00
2023-01-05T12:17:58.070Z,384.00
2023-01-05T12:18:58.071Z,344.00
2023-01-05T12:19:58.082Z,360.00
2023-01-05T12:20:58.056Z,380.00
2023-01-05T12:22:02.416Z,320.00
2023-01-05T12:22:58.253Z,268.00
2023-01-05T12:23:58.051Z,284.00
2023-01-05T12:24:58.047Z,240.00
2023-01-05T12:25:58.046Z,228.00
2023-01-05T12:26:58.042Z,244.00
2023-01-05T12:28:03.310Z,244.00
2023-01-05T12:30:09.135Z,228.00
2023-01-05T12:34:03.300Z,288.00
2023-01-05T12:34:58.015Z,284.00
2023-01-05T12:35:58.018Z,260.00
2023-01-05T12:36:58.010Z,256.00
2023-01-05T12:37:58.119Z,204.00
2023-01-05T12:38:58.002Z,180.00
2023-01-05T12:39:57.998Z,188.00
2023-01-05T12:40:57.999Z,212.00
2023-01-05T12:41:57.999Z,208.00
2023-01-05T12:42:57.986Z,204.00
2023-01-05T12:43:57.989Z,216.00
2023-01-05T12:44:57.982Z,232.00
2023-01-05T12:45:57.993Z,284.00
2023-01-05T12:46:58.023Z,300.00
2023-01-05T12:47:57.979Z,276.00
2023-01-05T12:48:57.968Z,232.00
2023-01-05T12:49:57.968Z,216.00
2023-01-05T12:50:57.979Z,216.00
2023-01-05T12:52:02.567Z,244.00
2023-01-05T12:52:57.965Z,256.00
2023-01-05T12:53:58.090Z,212.00
2023-01-05T12:54:57.951Z,204.00
2023-01-05T12:55:57.953Z,200.00
2023-01-05T12:56:57.948Z,188.00
2023-01-05T12:57:57.941Z,188.00
2023-01-05T12:58:57.940Z,188.00
2023-01-05T12:59:57.968Z,200.00
2023-01-05T13:00:58.044Z,208.00
2023-01-05T13:01:58.054Z,196.00
2023-01-05T13:02:57.988Z,192.00
2023-01-05T13:03:57.934Z,188.00
2023-01-05T13:04:57.922Z,196.00